Time;durP1;ratioP1;P1;durP2;ratioP2;P2;SDS_P1;SDS_P2;PMS_P1;PMS_P2;Temp;Humidity;BMP_temperature;BMP_pressure;BME280_temperature;BME280_humidity;BME280_pressure;Samples;Min_cycle;Max_cycle;Signal;HPM_P1;HPM_P2
2023/04/30 00:00:25;;;;;;;19.38;5.93;;;;;;;;;;5051126;28;20339;-70
2023/04/30 00:02:51;;;;;;;26.60;6.47;;;;;;;;;;5045692;28;20101;-71
2023/04/30 00:05:17;;;;;;;26.40;6.35;;;;;;;;;;5051272;28;20475;-71
2023/04/30 00:07:43;;;;;;;19.40;5.45;;;;;;;;;;5051534;28;20056;-71
2023/04/30 00:10:10;;;;;;;23.17;5.90;;;;;;;;;;5051316;28;20040;-70
2023/04/30 00:12:36;;;;;;;23.88;5.90;;;;;;;;;;5051188;28;20021;-70
2023/04/30 00:15:02;;;;;;;27.45;6.38;;;;;;;;;;5051481;28;20021;-70
2023/04/30 00:17:28;;;;;;;24.00;6.10;;;;;;;;;;5051403;28;20100;-70
2023/04/30 00:19:55;;;;;;;30.05;5.90;;;;;;;;;;5051256;28;20056;-71
2023/04/30 00:22:21;;;;;;;25.50;6.10;;;;;;;;;;5051115;28;20050;-71
2023/04/30 00:24:47;;;;;;;18.95;6.25;;;;;;;;;;5051401;28;20497;-71
2023/04/30 00:27:13;;;;;;;28.60;5.63;;;;;;;;;;5051499;28;20025;-71
2023/04/30 00:29:40;;;;;;;22.88;6.05;;;;;;;;;;5051465;28;20017;-71
2023/04/30 00:32:06;;;;;;;29.15;6.38;;;;;;;;;;5052152;28;20028;-71
2023/04/30 00:34:32;;;;;;;24.83;7.32;;;;;;;;;;5051678;28;20344;-70
2023/04/30 00:36:58;;;;;;;22.40;6.00;;;;;;;;;;5051523;28;20039;-70
2023/04/30 00:39:24;;;;;;;27.77;6.50;;;;;;;;;;5051590;28;20032;-71
2023/04/30 00:41:50;;;;;;;24.45;6.20;;;;;;;;;;5051228;28;20049;-70
2023/04/30 00:44:15;;;;;;;29.33;6.43;;;;;;;;;;5053971;28;20026;-71
2023/04/30 00:46:42;;;;;;;23.55;6.22;;;;;;;;;;5054722;28;20116;-71
2023/04/30 00:49:08;;;;;;;18.73;6.20;;;;;;;;;;5054767;28;20052;-71
2023/04/30 00:51:35;;;;;;;30.75;6.43;;;;;;;;;;5054556;28;20029;-71
2023/04/30 00:54:02;;;;;;;32.08;6.70;;;;;;;;;;5054517;28;20025;-71
2023/04/30 00:56:29;;;;;;;36.13;6.88;;;;;;;;;;5054530;28;20048;-72
2023/04/30 00:58:56;;;;;;;21.85;6.10;;;;;;;;;;5054517;28;20029;-73
2023/04/30 01:01:27;;;;;;;26.90;6.45;;;;;;;;;;5054461;28;20441;-71
2023/04/30 01:03:53;;;;;;;24.30;6.32;;;;;;;;;;5054122;28;20086;-72
2023/04/30 01:06:19;;;;;;;25.00;6.95;;;;;;;;;;5054173;28;20021;-71
2023/04/30 01:08:46;;;;;;;30.10;7.40;;;;;;;;;;5054256;28;20308;-70
2023/04/30 01:11:16;;;;;;;17.92;5.90;;;;;;;;;;5054404;28;20029;-70
2023/04/30 01:13:52;;;;;;;23.98;6.13;;;;;;;;;;5053972;28;20021;-72
2023/04/30 01:16:29;;;;;;;23.10;6.40;;;;;;;;;;5052882;28;20021;-71
2023/04/30 01:19:06;;;;;;;23.50;6.63;;;;;;;;;;5066460;28;20039;-70
2023/04/30 01:21:32;;;;;;;24.20;6.38;;;;;;;;;;5070781;28;20032;-70
2023/04/30 01:24:14;;;;;;;27.05;6.70;;;;;;;;;;5053842;28;20139;-71
2023/04/30 01:27:00;;;;;;;29.20;6.78;;;;;;;;;;5054531;28;20087;-70
2023/04/30 01:29:26;;;;;;;23.17;6.47;;;;;;;;;;5053839;28;20078;-70
2023/04/30 01:31:52;;;;;;;21.60;6.38;;;;;;;;;;5053643;28;20028;-70
2023/04/30 01:34:18;;;;;;;26.40;6.72;;;;;;;;;;5053773;28;20497;-70
2023/04/30 01:36:47;;;;;;;24.42;6.65;;;;;;;;;;5053060;28;20057;-70
2023/04/30 01:39:20;;;;;;;27.80;7.03;;;;;;;;;;5053064;28;20502;-70
2023/04/30 01:42:05;;;;;;;25.35;6.55;;;;;;;;;;5053392;28;20035;-70
2023/04/30 01:44:33;;;;;;;26.92;7.28;;;;;;;;;;5053845;28;20025;-69
2023/04/30 01:47:09;;;;;;;26.98;7.50;;;;;;;;;;5053646;28;20028;-70
2023/04/30 01:49:57;;;;;;;38.42;7.60;;;;;;;;;;5053440;28;20048;-70
2023/04/30 01:52:42;;;;;;;21.60;6.32;;;;;;;;;;5053735;28;20431;-72
2023/04/30 01:55:12;;;;;;;29.45;6.63;;;;;;;;;;5053033;28;20364;-70
2023/04/30 01:57:39;;;;;;;28.23;6.43;;;;;;;;;;5053209;28;20033;-70
2023/04/30 02:00:09;;;;;;;19.70;6.10;;;;;;;;;;5053060;28;20039;-70
2023/04/30 02:02:35;;;;;;;33.60;6.63;;;;;;;;;;5052929;28;20021;-70
2023/04/30 02:05:01;;;;;;;23.73;7.78;;;;;;;;;;5051880;28;20025;-69
2023/04/30 02:07:41;;;;;;;19.17;6.82;;;;;;;;;;5053110;28;20516;-70
2023/04/30 02:10:07;;;;;;;23.20;7.22;;;;;;;;;;5052994;28;20021;-70
2023/04/30 02:12:33;;;;;;;22.83;6.80;;;;;;;;;;5052751;28;20115;-70
2023/04/30 02:15:00;;;;;;;26.33;7.88;;;;;;;;;;5052923;28;20419;-70
2023/04/30 02:17:26;;;;;;;25.77;7.45;;;;;;;;;;5052973;28;20025;-70
2023/04/30 02:19:52;;;;;;;26.38;7.40;;;;;;;;;;5052882;28;20021;-70
2023/04/30 02:22:18;;;;;;;26.92;7.68;;;;;;;;;;5052451;28;20031;-70
2023/04/30 02:24:44;;;;;;;26.70;8.07;;;;;;;;;;5052724;28;20036;-71
2023/04/30 02:27:10;;;;;;;21.92;6.55;;;;;;;;;;5053095;28;20040;-72
2023/04/30 02:29:36;;;;;;;29.70;7.03;;;;;;;;;;5053716;28;20021;-70
2023/04/30 02:32:02;;;;;;;22.05;6.43;;;;;;;;;;5052907;28;20456;-70
2023/04/30 02:34:28;;;;;;;26.17;6.80;;;;;;;;;;5052808;28;20032;-70
2023/04/30 02:36:54;;;;;;;25.13;6.75;;;;;;;;;;5052856;28;20383;-70
2023/04/30 02:39:20;;;;;;;25.33;6.55;;;;;;;;;;5052703;28;20025;-68
2023/04/30 02:41:46;;;;;;;17.38;6.60;;;;;;;;;;5052389;28;20029;-70
2023/04/30 02:44:12;;;;;;;20.33;7.57;;;;;;;;;;5052524;28;20021;-70
2023/04/30 02:46:38;;;;;;;26.27;7.15;;;;;;;;;;5052480;28;20052;-70
2023/04/30 02:49:04;;;;;;;20.80;6.43;;;;;;;;;;5052550;28;20479;-70
2023/04/30 02:51:31;;;;;;;26.80;7.28;;;;;;;;;;5052437;28;20025;-70
2023/04/30 02:53:57;;;;;;;24.08;6.90;;;;;;;;;;5052096;28;20029;-71
2023/04/30 02:56:23;;;;;;;21.60;7.53;;;;;;;;;;5052484;28;20032;-70
2023/04/30 02:58:49;;;;;;;19.67;6.93;;;;;;;;;;5052542;28;20029;-70
2023/04/30 03:01:15;;;;;;;23.63;6.72;;;;;;;;;;5052753;28;20028;-70
2023/04/30 03:03:41;;;;;;;23.27;7.20;;;;;;;;;;5052308;28;20348;-70
2023/04/30 03:06:07;;;;;;;27.00;7.68;;;;;;;;;;5051686;28;20029;-70
2023/04/30 03:08:33;;;;;;;25.38;7.65;;;;;;;;;;5051484;28;20033;-70
2023/04/30 03:10:59;;;;;;;19.25;6.72;;;;;;;;;;5052150;28;20086;-70
2023/04/30 03:13:25;;;;;;;24.52;6.53;;;;;;;;;;5052023;28;20021;-70
2023/04/30 03:16:01;;;;;;;25.83;7.15;;;;;;;;;;5052080;28;20036;-70
2023/04/30 03:18:27;;;;;;;24.40;6.80;;;;;;;;;;5051941;28;20444;-71
2023/04/30 03:20:54;;;;;;;22.17;7.00;;;;;;;;;;5051960;28;20037;-69
2023/04/30 03:23:20;;;;;;;25.17;7.15;;;;;;;;;;5051672;28;20519;-69
2023/04/30 03:25:46;;;;;;;19.80;6.20;;;;;;;;;;5052051;28;20017;-69
2023/04/30 03:28:12;;;;;;;25.67;6.47;;;;;;;;;;5052109;28;20386;-69
2023/04/30 03:30:38;;;;;;;21.52;6.93;;;;;;;;;;5051928;28;20087;-69
2023/04/30 03:33:05;;;;;;;18.75;6.75;;;;;;;;;;5051610;28;20033;-70
2023/04/30 03:35:32;;;;;;;25.33;7.18;;;;;;;;;;5051655;28;20376;-70
2023/04/30 03:37:58;;;;;;;28.98;6.95;;;;;;;;;;5051699;28;20120;-71
2023/04/30 03:40:23;;;;;;;23.92;6.80;;;;;;;;;;5051760;28;20121;-69
2023/04/30 03:42:49;;;;;;;23.92;6.47;;;;;;;;;;5051473;28;20055;-69
2023/04/30 03:45:15;;;;;;;23.38;6.63;;;;;;;;;;5051725;28;20509;-69
2023/04/30 03:47:42;;;;;;;29.05;6.65;;;;;;;;;;5051664;28;20044;-70
2023/04/30 03:50:09;;;;;;;27.52;7.07;;;;;;;;;;5051572;28;20021;-71
2023/04/30 03:52:35;;;;;;;23.63;6.65;;;;;;;;;;5052734;28;20032;-71
2023/04/30 03:55:01;;;;;;;25.40;7.40;;;;;;;;;;5053975;28;20067;-70
2023/04/30 03:57:28;;;;;;;26.88;6.80;;;;;;;;;;5053845;28;20431;-70
2023/04/30 03:59:54;;;;;;;20.33;7.00;;;;;;;;;;5053337;28;20028;-73
2023/04/30 04:02:20;;;;;;;25.50;6.95;;;;;;;;;;5051871;28;20100;-72
2023/04/30 04:04:46;;;;;;;29.88;8.23;;;;;;;;;;5051567;28;20079;-71
2023/04/30 04:07:12;;;;;;;23.85;7.05;;;;;;;;;;5051624;28;20056;-71
2023/04/30 04:09:38;;;;;;;21.80;6.50;;;;;;;;;;5051647;28;20111;-73
2023/04/30 04:12:05;;;;;;;21.20;6.90;;;;;;;;;;5045792;28;20090;-73
2023/04/30 04:14:31;;;;;;;22.20;6.13;;;;;;;;;;5051225;28;20033;-74
2023/04/30 04:16:58;;;;;;;23.90;6.50;;;;;;;;;;5055903;28;20033;-72
2023/04/30 04:19:24;;;;;;;18.13;6.15;;;;;;;;;;5052092;28;20029;-74
2023/04/30 04:21:50;;;;;;;21.90;7.70;;;;;;;;;;5053959;28;20541;-73
2023/04/30 04:24:16;;;;;;;26.70;8.50;;;;;;;;;;5054989;28;20100;-71
2023/04/30 04:26:42;;;;;;;23.52;8.07;;;;;;;;;;5049312;28;20075;-73
2023/04/30 04:29:08;;;;;;;17.25;7.05;;;;;;;;;;5054773;28;20056;-73
2023/04/30 04:31:34;;;;;;;27.33;8.30;;;;;;;;;;5054512;28;20045;-71
2023/04/30 04:34:02;;;;;;;24.17;7.93;;;;;;;;;;5054595;28;20127;-70
2023/04/30 04:36:29;;;;;;;19.17;6.75;;;;;;;;;;5054879;28;20036;-69
2023/04/30 04:38:56;;;;;;;21.58;7.47;;;;;;;;;;5054926;28;20041;-69
2023/04/30 04:41:23;;;;;;;21.60;7.55;;;;;;;;;;5054816;28;20063;-69
2023/04/30 04:43:49;;;;;;;25.90;8.10;;;;;;;;;;5054621;28;20488;-70
2023/04/30 04:46:16;;;;;;;17.33;6.95;;;;;;;;;;5054718;28;20490;-70
2023/04/30 04:48:42;;;;;;;27.48;7.55;;;;;;;;;;5054704;28;20592;-70
2023/04/30 04:51:09;;;;;;;27.42;8.07;;;;;;;;;;5054912;28;20021;-70
2023/04/30 04:53:35;;;;;;;20.80;6.40;;;;;;;;;;5054430;28;20482;-70
2023/04/30 04:56:01;;;;;;;24.75;7.30;;;;;;;;;;5054639;28;20025;-70
2023/04/30 04:58:27;;;;;;;29.30;7.80;;;;;;;;;;5054591;28;20378;-70
2023/04/30 05:00:53;;;;;;;22.77;6.63;;;;;;;;;;5054313;28;20033;-70
2023/04/30 05:03:19;;;;;;;27.25;8.18;;;;;;;;;;5054359;28;20513;-69
2023/04/30 05:05:46;;;;;;;34.60;7.47;;;;;;;;;;5054428;28;20021;-71
2023/04/30 05:08:12;;;;;;;25.10;8.27;;;;;;;;;;5054331;28;20108;-70
2023/04/30 05:10:38;;;;;;;26.27;7.53;;;;;;;;;;5054174;28;20053;-69
2023/04/30 05:13:04;;;;;;;23.60;7.38;;;;;;;;;;5053845;28;20462;-70
2023/04/30 05:15:30;;;;;;;36.45;8.10;;;;;;;;;;5053068;28;20090;-71
2023/04/30 05:17:56;;;;;;;21.75;7.03;;;;;;;;;;5051558;28;20402;-71
2023/04/30 05:20:22;;;;;;;27.67;7.28;;;;;;;;;;5053119;28;20025;-74
2023/04/30 05:22:48;;;;;;;16.95;7.05;;;;;;;;;;5050213;28;20091;-73
2023/04/30 05:25:14;;;;;;;22.65;7.68;;;;;;;;;;5058520;28;20112;-72
2023/04/30 05:27:40;;;;;;;26.80;7.03;;;;;;;;;;5052702;28;20374;-72
2023/04/30 05:30:07;;;;;;;26.23;7.15;;;;;;;;;;5049616;28;20463;-73
2023/04/30 05:32:33;;;;;;;22.48;7.35;;;;;;;;;;5057464;28;20037;-72
2023/04/30 05:34:59;;;;;;;21.85;7.40;;;;;;;;;;5052700;28;20059;-72
2023/04/30 05:37:25;;;;;;;24.15;7.50;;;;;;;;;;5054547;28;20028;-72
2023/04/30 05:39:52;;;;;;;28.83;8.02;;;;;;;;;;5052498;28;20378;-72
2023/04/30 05:42:18;;;;;;;31.98;8.10;;;;;;;;;;5053659;28;20021;-71
2023/04/30 05:44:45;;;;;;;23.85;7.82;;;;;;;;;;5055319;28;20028;-72
2023/04/30 05:47:11;;;;;;;22.60;8.07;;;;;;;;;;5052078;28;20539;-72
2023/04/30 05:49:37;;;;;;;23.17;7.78;;;;;;;;;;5061370;28;20025;-71
2023/04/30 05:52:03;;;;;;;21.85;8.18;;;;;;;;;;5057260;28;20032;-71
2023/04/30 05:54:29;;;;;;;24.40;7.60;;;;;;;;;;5056426;28;20020;-69
2023/04/30 05:56:55;;;;;;;26.35;8.23;;;;;;;;;;5053418;28;20551;-70
2023/04/30 05:59:21;;;;;;;38.67;9.30;;;;;;;;;;5053312;28;20065;-69
2023/04/30 06:01:47;;;;;;;34.30;8.98;;;;;;;;;;5053077;28;20051;-70
2023/04/30 06:04:13;;;;;;;22.63;7.97;;;;;;;;;;5053373;28;20638;-69
2023/04/30 06:06:39;;;;;;;22.60;7.50;;;;;;;;;;5053366;28;20021;-70
2023/04/30 06:09:05;;;;;;;28.27;8.93;;;;;;;;;;5053168;28;20391;-69
2023/04/30 06:11:31;;;;;;;23.02;7.60;;;;;;;;;;5053333;28;20502;-70
2023/04/30 06:13:58;;;;;;;30.80;7.43;;;;;;;;;;5053730;28;20084;-72
2023/04/30 06:16:24;;;;;;;24.77;7.25;;;;;;;;;;5057524;28;20494;-69
2023/04/30 06:18:50;;;;;;;32.40;6.95;;;;;;;;;;5054325;28;20036;-73
2023/04/30 06:21:16;;;;;;;21.42;5.72;;;;;;;;;;5053383;28;20021;-71
2023/04/30 06:23:42;;;;;;;19.98;5.68;;;;;;;;;;5053200;28;20467;-69
2023/04/30 06:26:08;;;;;;;21.75;6.43;;;;;;;;;;5052635;28;20028;-73
2023/04/30 06:28:34;;;;;;;19.80;5.30;;;;;;;;;;5052879;28;20071;-73
2023/04/30 06:31:00;;;;;;;23.35;5.30;;;;;;;;;;5052884;28;20021;-73
2023/04/30 06:33:26;;;;;;;20.40;5.93;;;;;;;;;;5052611;28;20433;-72
2023/04/30 06:35:54;;;;;;;29.02;5.57;;;;;;;;;;5052842;28;20032;-73
2023/04/30 06:38:20;;;;;;;30.30;5.57;;;;;;;;;;5052807;28;20021;-72
2023/04/30 06:40:46;;;;;;;24.33;4.90;;;;;;;;;;5053061;28;20065;-75
2023/04/30 06:43:12;;;;;;;19.95;4.72;;;;;;;;;;5052990;28;20078;-72
2023/04/30 06:45:38;;;;;;;15.15;4.22;;;;;;;;;;5053447;28;20052;-75
2023/04/30 06:48:04;;;;;;;18.00;4.47;;;;;;;;;;5056785;28;20024;-75
2023/04/30 06:50:30;;;;;;;21.05;4.72;;;;;;;;;;5069375;28;20040;-75
2023/04/30 06:52:56;;;;;;;19.63;4.53;;;;;;;;;;5067719;28;20025;-76
2023/04/30 06:55:22;;;;;;;17.90;4.90;;;;;;;;;;5069023;28;20029;-74
2023/04/30 06:57:48;;;;;;;18.63;4.32;;;;;;;;;;5066978;28;20096;-75
2023/04/30 07:00:14;;;;;;;19.63;5.00;;;;;;;;;;5066993;28;20040;-73
2023/04/30 07:02:41;;;;;;;15.80;4.53;;;;;;;;;;5058250;28;20021;-76
2023/04/30 07:05:08;;;;;;;28.48;4.68;;;;;;;;;;5055619;28;20043;-71
2023/04/30 07:07:34;;;;;;;21.73;4.30;;;;;;;;;;5053748;28;20039;-69
2023/04/30 07:10:00;;;;;;;22.52;5.05;;;;;;;;;;5053929;28;20083;-70
2023/04/30 07:12:26;;;;;;;18.70;4.03;;;;;;;;;;5053076;28;20029;-71
2023/04/30 07:14:52;;;;;;;21.60;4.18;;;;;;;;;;5053408;28;20033;-70
2023/04/30 07:17:18;;;;;;;19.75;3.88;;;;;;;;;;5052958;28;20055;-71
2023/04/30 07:19:44;;;;;;;21.27;4.22;;;;;;;;;;5052906;28;20044;-71
2023/04/30 07:22:10;;;;;;;19.90;4.07;;;;;;;;;;5053620;28;20364;-72
2023/04/30 07:24:36;;;;;;;15.32;3.67;;;;;;;;;;5052276;28;20116;-70
2023/04/30 07:27:02;;;;;;;17.08;3.53;;;;;;;;;;5052040;28;20124;-70
2023/04/30 07:29:29;;;;;;;11.73;3.58;;;;;;;;;;5051945;28;20524;-71
2023/04/30 07:31:58;;;;;;;14.05;3.42;;;;;;;;;;5051732;28;20052;-70
2023/04/30 07:34:25;;;;;;;18.30;3.95;;;;;;;;;;5051882;28;20029;-69
2023/04/30 07:36:51;;;;;;;13.48;3.58;;;;;;;;;;5051669;28;20025;-73
2023/04/30 07:39:17;;;;;;;16.83;4.28;;;;;;;;;;5051550;28;20027;-71
2023/04/30 07:41:43;;;;;;;24.40;4.30;;;;;;;;;;5051501;28;20029;-71
2023/04/30 07:44:10;;;;;;;14.55;3.60;;;;;;;;;;5051672;28;20049;-70
2023/04/30 07:46:36;;;;;;;14.30;3.25;;;;;;;;;;5051816;28;20052;-71
2023/04/30 07:49:02;;;;;;;17.20;3.67;;;;;;;;;;5051903;28;20024;-73
2023/04/30 07:51:29;;;;;;;24.08;3.67;;;;;;;;;;5051990;28;20021;-76
2023/04/30 07:53:55;;;;;;;16.00;3.35;;;;;;;;;;5053882;28;20094;-74
2023/04/30 07:56:21;;;;;;;20.75;3.70;;;;;;;;;;5055879;28;20502;-70
2023/04/30 07:58:47;;;;;;;21.25;4.15;;;;;;;;;;5055728;28;20021;-73
2023/04/30 08:01:13;;;;;;;16.10;3.85;;;;;;;;;;5055698;28;20090;-73
2023/04/30 08:03:39;;;;;;;17.42;3.35;;;;;;;;;;5055507;28;20025;-72
2023/04/30 08:06:05;;;;;;;15.48;3.50;;;;;;;;;;5055732;28;20029;-70
2023/04/30 08:08:31;;;;;;;16.10;4.00;;;;;;;;;;5055331;28;20093;-73
2023/04/30 08:10:57;;;;;;;13.77;3.83;;;;;;;;;;5055257;28;20036;-71
2023/04/30 08:13:23;;;;;;;16.50;3.95;;;;;;;;;;5055205;28;20097;-70
2023/04/30 08:15:50;;;;;;;13.32;3.17;;;;;;;;;;5055256;28;20112;-71
2023/04/30 08:18:16;;;;;;;18.52;3.53;;;;;;;;;;5055322;28;20029;-70
2023/04/30 08:20:42;;;;;;;15.05;3.65;;;;;;;;;;5055637;28;20159;-70
2023/04/30 08:23:08;;;;;;;13.15;3.28;;;;;;;;;;5056517;28;20363;-71
2023/04/30 08:25:34;;;;;;;15.30;3.47;;;;;;;;;;5056094;28;20024;-71
2023/04/30 08:28:00;;;;;;;15.80;3.60;;;;;;;;;;5055063;28;20063;-71
2023/04/30 08:30:26;;;;;;;12.90;3.20;;;;;;;;;;5055205;28;20025;-71
2023/04/30 08:32:52;;;;;;;13.00;3.17;;;;;;;;;;5054743;28;20021;-71
2023/04/30 08:35:18;;;;;;;9.75;3.00;;;;;;;;;;5057891;28;20104;-71
2023/04/30 08:37:44;;;;;;;16.27;3.85;;;;;;;;;;5059511;28;20025;-72
2023/04/30 08:40:11;;;;;;;17.45;3.80;;;;;;;;;;5059373;28;20078;-73
2023/04/30 08:42:37;;;;;;;9.98;3.20;;;;;;;;;;5059910;28;20032;-71
2023/04/30 08:45:04;;;;;;;13.88;3.33;;;;;;;;;;5064003;28;20392;-72
2023/04/30 08:47:30;;;;;;;17.17;3.65;;;;;;;;;;5063589;28;20017;-72
2023/04/30 08:49:56;;;;;;;13.55;3.53;;;;;;;;;;5063469;28;20600;-71
2023/04/30 08:52:22;;;;;;;11.70;3.30;;;;;;;;;;5060970;28;20071;-72
2023/04/30 08:54:49;;;;;;;21.90;3.78;;;;;;;;;;5061835;28;20395;-70
2023/04/30 08:57:16;;;;;;;18.35;3.95;;;;;;;;;;5060154;28;20031;-77
2023/04/30 08:59:45;;;;;;;12.18;3.20;;;;;;;;;;5055290;28;20375;-75
2023/04/30 09:02:12;;;;;;;16.17;3.30;;;;;;;;;;5056224;28;20053;-72
2023/04/30 09:04:38;;;;;;;9.13;3.00;;;;;;;;;;5055566;28;20028;-70
2023/04/30 09:07:04;;;;;;;19.25;3.92;;;;;;;;;;5055383;28;20406;-71
2023/04/30 09:09:31;;;;;;;20.90;4.13;;;;;;;;;;5054323;28;20025;-70
2023/04/30 09:12:18;;;;;;;20.27;3.55;;;;;;;;;;5054207;28;20025;-71
2023/04/30 09:14:58;;;;;;;16.83;3.53;;;;;;;;;;5054238;28;20049;-74
2023/04/30 09:17:25;;;;;;;12.02;3.22;;;;;;;;;;5054290;28;20106;-72
2023/04/30 09:19:52;;;;;;;14.10;3.40;;;;;;;;;;5054336;28;20312;-69
2023/04/30 09:22:19;;;;;;;24.23;4.00;;;;;;;;;;5054115;28;20100;-72
2023/04/30 09:24:48;;;;;;;15.25;3.75;;;;;;;;;;5054216;28;20036;-70
2023/04/30 09:27:17;;;;;;;14.20;3.17;;;;;;;;;;5054563;28;20375;-70
2023/04/30 09:29:44;;;;;;;11.43;3.45;;;;;;;;;;5054489;28;20021;-70
2023/04/30 09:32:10;;;;;;;13.07;3.60;;;;;;;;;;5054248;28;20028;-71
2023/04/30 09:34:36;;;;;;;14.43;3.65;;;;;;;;;;5054244;28;20075;-71
2023/04/30 09:37:03;;;;;;;12.50;3.65;;;;;;;;;;5054630;28;20029;-71
2023/04/30 09:39:29;;;;;;;16.55;3.60;;;;;;;;;;5056245;28;20052;-73
2023/04/30 09:42:08;;;;;;;9.73;2.83;;;;;;;;;;5055807;28;20059;-74
2023/04/30 09:44:39;;;;;;;16.38;3.92;;;;;;;;;;5054630;28;20035;-71
2023/04/30 09:47:05;;;;;;;15.70;3.28;;;;;;;;;;5054652;28;20040;-73
2023/04/30 09:49:31;;;;;;;16.13;3.55;;;;;;;;;;5054588;28;20025;-75
2023/04/30 09:51:57;;;;;;;15.20;3.70;;;;;;;;;;5053952;28;20029;-73
2023/04/30 09:54:28;;;;;;;16.02;3.65;;;;;;;;;;5053736;28;20144;-70
2023/04/30 09:56:57;;;;;;;12.63;3.20;;;;;;;;;;5054068;28;20036;-71
2023/04/30 09:59:29;;;;;;;11.75;3.22;;;;;;;;;;5053254;28;20025;-70
2023/04/30 10:01:56;;;;;;;13.15;3.30;;;;;;;;;;5053112;28;20029;-70
2023/04/30 10:04:22;;;;;;;12.52;3.63;;;;;;;;;;5053038;28;20104;-70
2023/04/30 10:06:51;;;;;;;10.27;3.15;;;;;;;;;;5053224;28;20021;-69
2023/04/30 10:09:17;;;;;;;17.85;4.43;;;;;;;;;;5052559;28;20029;-70
2023/04/30 10:11:44;;;;;;;19.40;4.03;;;;;;;;;;5052651;28;20043;-70
2023/04/30 10:14:11;;;;;;;10.60;3.17;;;;;;;;;;5053515;28;20035;-71
2023/04/30 10:16:43;;;;;;;8.65;2.85;;;;;;;;;;5052961;28;20056;-71
2023/04/30 10:19:31;;;;;;;13.63;4.10;;;;;;;;;;5053719;28;20057;-70
2023/04/30 10:21:57;;;;;;;12.90;3.42;;;;;;;;;;5052841;28;20028;-70
2023/04/30 10:24:23;;;;;;;13.32;3.88;;;;;;;;;;5052972;28;20108;-69
2023/04/30 10:26:49;;;;;;;15.10;3.75;;;;;;;;;;5051180;28;20036;-68
2023/04/30 10:29:16;;;;;;;15.27;4.70;;;;;;;;;;5052828;28;20416;-70
2023/04/30 10:31:44;;;;;;;15.18;3.85;;;;;;;;;;5052667;28;20032;-69
2023/04/30 10:34:33;;;;;;;17.17;3.70;;;;;;;;;;5053299;28;20021;-71
2023/04/30 10:37:09;;;;;;;9.20;2.97;;;;;;;;;;5024176;28;20098;-70
2023/04/30 10:39:35;;;;;;;10.30;4.50;;;;;;;;;;5052630;28;20033;-71
2023/04/30 10:42:05;;;;;;;19.92;4.22;;;;;;;;;;5051843;28;20060;-70
2023/04/30 10:44:36;;;;;;;14.85;3.53;;;;;;;;;;5052998;28;20379;-71
2023/04/30 10:47:02;;;;;;;12.10;3.15;;;;;;;;;;5052649;28;20032;-69
2023/04/30 10:49:28;;;;;;;11.82;3.53;;;;;;;;;;5052355;28;20017;-71
2023/04/30 10:51:57;;;;;;;12.20;3.50;;;;;;;;;;5051817;28;20521;-71
2023/04/30 10:54:26;;;;;;;12.63;3.95;;;;;;;;;;5052046;28;20039;-70
2023/04/30 10:56:55;;;;;;;10.75;3.38;;;;;;;;;;5053407;28;20505;-71
2023/04/30 10:59:21;;;;;;;12.77;3.55;;;;;;;;;;5055018;28;20024;-71
2023/04/30 11:02:06;;;;;;;11.90;3.53;;;;;;;;;;5053899;28;20060;-70
2023/04/30 11:04:32;;;;;;;10.40;3.90;;;;;;;;;;5053910;28;20076;-71
2023/04/30 11:07:05;;;;;;;9.77;3.17;;;;;;;;;;5053848;28;20031;-73
2023/04/30 11:09:44;;;;;;;14.10;4.15;;;;;;;;;;5054509;28;20029;-74
2023/04/30 11:12:10;;;;;;;12.52;3.72;;;;;;;;;;5053883;28;20024;-73
2023/04/30 11:14:40;;;;;;;16.90;4.57;;;;;;;;;;5056886;28;20021;-73
2023/04/30 11:17:06;;;;;;;9.77;3.40;;;;;;;;;;5057303;28;20020;-72
2023/04/30 11:19:33;;;;;;;14.95;3.88;;;;;;;;;;5053348;28;20454;-72
2023/04/30 11:22:02;;;;;;;12.93;3.50;;;;;;;;;;5055351;28;20104;-74
2023/04/30 11:24:47;;;;;;;12.45;4.05;;;;;;;;;;5055739;28;20053;-74
2023/04/30 11:27:13;;;;;;;16.00;3.78;;;;;;;;;;5053519;28;20441;-71
2023/04/30 11:29:39;;;;;;;12.70;3.90;;;;;;;;;;5053379;28;20124;-72
2023/04/30 11:32:06;;;;;;;12.32;4.00;;;;;;;;;;5052904;28;20028;-72
2023/04/30 11:34:34;;;;;;;13.93;3.95;;;;;;;;;;5053411;28;20139;-71
2023/04/30 11:37:01;;;;;;;15.43;4.68;;;;;;;;;;5052989;28;20032;-71
2023/04/30 11:39:28;;;;;;;12.13;3.65;;;;;;;;;;5052419;28;20505;-71
2023/04/30 11:41:54;;;;;;;13.15;3.22;;;;;;;;;;5051573;28;20036;-71
2023/04/30 11:44:27;;;;;;;13.70;4.05;;;;;;;;;;5052165;28;20483;-71
2023/04/30 11:46:53;;;;;;;12.27;3.92;;;;;;;;;;5051587;28;20112;-71
2023/04/30 11:49:22;;;;;;;15.27;3.97;;;;;;;;;;5051389;28;20057;-72
2023/04/30 11:51:52;;;;;;;20.38;4.20;;;;;;;;;;5051277;28;20108;-72
2023/04/30 11:54:18;;;;;;;12.93;3.33;;;;;;;;;;5050234;28;20029;-71
2023/04/30 11:56:47;;;;;;;10.20;3.33;;;;;;;;;;5051674;28;20029;-72
2023/04/30 11:59:14;;;;;;;11.63;4.00;;;;;;;;;;5051349;28;20036;-72
2023/04/30 12:01:40;;;;;;;14.10;3.88;;;;;;;;;;5051493;28;20021;-72
2023/04/30 12:04:07;;;;;;;16.15;3.75;;;;;;;;;;5052138;28;20029;-72
2023/04/30 12:06:34;;;;;;;12.65;3.42;;;;;;;;;;5051887;28;20028;-71
2023/04/30 12:09:02;;;;;;;12.95;3.67;;;;;;;;;;5051677;28;20025;-71
2023/04/30 12:11:29;;;;;;;13.38;3.80;;;;;;;;;;5052059;28;20032;-72
2023/04/30 12:14:13;;;;;;;17.40;4.40;;;;;;;;;;5051429;28;20021;-71
2023/04/30 12:16:39;;;;;;;11.18;3.90;;;;;;;;;;5051652;28;20390;-71
2023/04/30 12:19:05;;;;;;;11.65;4.28;;;;;;;;;;5051354;28;20025;-72
2023/04/30 12:21:32;;;;;;;14.00;3.85;;;;;;;;;;5051285;28;20025;-72
2023/04/30 12:23:58;;;;;;;13.68;3.65;;;;;;;;;;5051105;28;20082;-72
2023/04/30 12:26:24;;;;;;;19.23;4.75;;;;;;;;;;5051770;28;20033;-71
2023/04/30 12:28:50;;;;;;;12.45;3.55;;;;;;;;;;5050974;28;20041;-72
2023/04/30 12:31:17;;;;;;;18.92;4.15;;;;;;;;;;5051213;28;20029;-71
2023/04/30 12:33:43;;;;;;;10.15;3.50;;;;;;;;;;5051003;28;20390;-72
2023/04/30 12:36:13;;;;;;;13.90;3.70;;;;;;;;;;5050845;28;20025;-72
2023/04/30 12:38:42;;;;;;;12.10;3.63;;;;;;;;;;5051351;28;20036;-73
2023/04/30 12:41:16;;;;;;;10.45;2.92;;;;;;;;;;5055105;28;20057;-72
2023/04/30 12:43:42;;;;;;;14.63;3.42;;;;;;;;;;5054821;28;20036;-71
2023/04/30 12:46:08;;;;;;;11.38;3.58;;;;;;;;;;5054478;28;20032;-71
2023/04/30 12:48:43;;;;;;;15.77;3.25;;;;;;;;;;5054390;28;20021;-71
2023/04/30 12:51:10;;;;;;;11.05;3.08;;;;;;;;;;5054657;28;20103;-72
2023/04/30 12:53:44;;;;;;;12.82;3.90;;;;;;;;;;5053967;28;20109;-72
2023/04/30 12:56:11;;;;;;;12.77;4.80;;;;;;;;;;5054430;28;20033;-72
2023/04/30 12:58:38;;;;;;;19.30;5.20;;;;;;;;;;5055005;28;20127;-73
2023/04/30 13:01:05;;;;;;;14.60;3.38;;;;;;;;;;5054795;28;20399;-71
2023/04/30 13:03:31;;;;;;;9.95;3.30;;;;;;;;;;5055148;28;20033;-71
2023/04/30 13:05:57;;;;;;;10.88;3.20;;;;;;;;;;5074635;28;20025;-71
2023/04/30 13:08:23;;;;;;;8.07;3.33;;;;;;;;;;5062939;28;20068;-71
2023/04/30 13:10:50;;;;;;;10.75;3.30;;;;;;;;;;5054430;28;20043;-72
2023/04/30 13:13:19;;;;;;;12.00;3.08;;;;;;;;;;5054276;28;20025;-71
2023/04/30 13:15:45;;;;;;;7.80;2.60;;;;;;;;;;5054867;28;20098;-70
2023/04/30 13:18:11;;;;;;;10.95;3.15;;;;;;;;;;5054971;28;20029;-71
2023/04/30 13:20:37;;;;;;;14.25;3.65;;;;;;;;;;5053202;28;20032;-72
2023/04/30 13:23:03;;;;;;;14.32;4.20;;;;;;;;;;5055241;28;20057;-72
2023/04/30 13:25:30;;;;;;;13.43;3.30;;;;;;;;;;5054938;28;20031;-72
2023/04/30 13:27:56;;;;;;;10.75;3.13;;;;;;;;;;5055089;28;20079;-72
2023/04/30 13:30:22;;;;;;;13.45;3.45;;;;;;;;;;5054612;28;20060;-72
2023/04/30 13:32:49;;;;;;;15.48;5.10;;;;;;;;;;5054280;28;20033;-72
2023/04/30 13:35:15;;;;;;;10.15;3.05;;;;;;;;;;5055942;28;20029;-72
2023/04/30 13:37:41;;;;;;;10.80;3.03;;;;;;;;;;5054046;28;20467;-72
2023/04/30 13:40:08;;;;;;;8.02;2.92;;;;;;;;;;5053524;28;20021;-72
2023/04/30 13:42:36;;;;;;;12.20;3.60;;;;;;;;;;5053188;28;20032;-71
2023/04/30 13:45:03;;;;;;;10.20;3.67;;;;;;;;;;5053321;28;20074;-71
2023/04/30 13:47:28;;;;;;;11.15;2.70;;;;;;;;;;5053753;28;20024;-73
2023/04/30 13:49:55;;;;;;;9.07;3.28;;;;;;;;;;5053164;28;20029;-71
2023/04/30 13:52:21;;;;;;;13.23;3.45;;;;;;;;;;5051962;28;20078;-71
2023/04/30 13:54:47;;;;;;;10.60;3.50;;;;;;;;;;5053132;28;20021;-70
2023/04/30 13:57:13;;;;;;;7.57;3.05;;;;;;;;;;5053224;28;20031;-71
2023/04/30 13:59:39;;;;;;;8.88;3.03;;;;;;;;;;5052920;28;20029;-70
2023/04/30 14:02:05;;;;;;;9.70;2.83;;;;;;;;;;5052714;28;20029;-70
2023/04/30 14:04:31;;;;;;;13.75;3.10;;;;;;;;;;5053286;28;20065;-72
2023/04/30 14:06:57;;;;;;;15.77;2.95;;;;;;;;;;5051755;28;20017;-72
2023/04/30 14:09:23;;;;;;;7.68;2.90;;;;;;;;;;5053626;28;20029;-74
2023/04/30 14:11:50;;;;;;;10.80;3.45;;;;;;;;;;5052635;28;20047;-73
2023/04/30 14:14:15;;;;;;;10.77;3.20;;;31.40;99.90;;;;;;5053297;28;20083;-72
2023/04/30 14:16:43;;;;;;;13.40;3.42;;;31.30;99.90;;;;;;5053083;28;20425;-72
2023/04/30 14:19:09;;;;;;;8.57;2.63;;;31.40;99.90;;;;;;5050956;28;20032;-73
2023/04/30 14:21:35;;;;;;;11.43;3.10;;;31.50;99.90;;;;;;5050606;28;20036;-72
2023/04/30 14:24:00;;;;;;;9.95;2.63;;;31.70;99.90;;;;;;5050424;28;20029;-72
2023/04/30 14:26:26;;;;;;;9.20;3.00;;;31.80;99.90;;;;;;5052654;28;20043;-71
2023/04/30 14:28:52;;;;;;;10.15;2.85;;;31.60;99.90;;;;;;5052628;28;20032;-72